sensor_id;sensor_type;location;lat;lon;timestamp;P1;durP1;ratioP1;P2;durP2;ratioP2
33858;SDS011;20156;47.486;12.074;2023-04-06T00:01:28;9.20;;;8.10;;
33858;SDS011;20156;47.486;12.074;2023-04-06T00:03:54;10.23;;;8.53;;
33858;SDS011;20156;47.486;12.074;2023-04-06T00:06:19;9.37;;;7.93;;
33858;SDS011;20156;47.486;12.074;2023-04-06T00:08:45;10.67;;;8.93;;
33858;SDS011;20156;47.486;12.074;2023-04-06T00:11:10;11.53;;;8.30;;
33858;SDS011;20156;47.486;12.074;2023-04-06T00:13:36;12.03;;;8.77;;
33858;SDS011;20156;47.486;12.074;2023-04-06T00:16:01;11.80;;;9.27;;
33858;SDS011;20156;47.486;12.074;2023-04-06T00:18:27;10.13;;;8.80;;
33858;SDS011;20156;47.486;12.074;2023-04-06T00:20:52;10.00;;;8.10;;
33858;SDS011;20156;47.486;12.074;2023-04-06T00:23:18;10.50;;;8.27;;
33858;SDS011;20156;47.486;12.074;2023-04-06T00:25:43;11.47;;;9.40;;
33858;SDS011;20156;47.486;12.074;2023-04-06T00:28:08;8.73;;;7.83;;
33858;SDS011;20156;47.486;12.074;2023-04-06T00:30:34;11.83;;;8.50;;
33858;SDS011;20156;47.486;12.074;2023-04-06T00:32:59;9.50;;;8.50;;
33858;SDS011;20156;47.486;12.074;2023-04-06T00:35:25;9.57;;;8.00;;
33858;SDS011;20156;47.486;12.074;2023-04-06T00:37:51;11.43;;;7.67;;
33858;SDS011;20156;47.486;12.074;2023-04-06T00:40:16;9.10;;;8.17;;
33858;SDS011;20156;47.486;12.074;2023-04-06T00:42:42;9.63;;;8.63;;
33858;SDS011;20156;47.486;12.074;2023-04-06T00:45:08;9.97;;;7.73;;
33858;SDS011;20156;47.486;12.074;2023-04-06T00:47:34;9.90;;;8.80;;
33858;SDS011;20156;47.486;12.074;2023-04-06T00:49:59;11.37;;;8.70;;
33858;SDS011;20156;47.486;12.074;2023-04-06T00:52:25;10.97;;;8.37;;
33858;SDS011;20156;47.486;12.074;2023-04-06T00:54:51;9.43;;;8.43;;
33858;SDS011;20156;47.486;12.074;2023-04-06T00:57:16;11.30;;;9.03;;
33858;SDS011;20156;47.486;12.074;2023-04-06T00:59:42;11.23;;;9.27;;
33858;SDS011;20156;47.486;12.074;2023-04-06T01:02:08;12.70;;;9.33;;
33858;SDS011;20156;47.486;12.074;2023-04-06T01:04:34;9.67;;;8.30;;
33858;SDS011;20156;47.486;12.074;2023-04-06T01:07:00;10.37;;;9.23;;
33858;SDS011;20156;47.486;12.074;2023-04-06T01:09:27;11.70;;;9.67;;
33858;SDS011;20156;47.486;12.074;2023-04-06T01:11:53;10.77;;;9.33;;
33858;SDS011;20156;47.486;12.074;2023-04-06T01:14:20;10.30;;;8.27;;
33858;SDS011;20156;47.486;12.074;2023-04-06T01:16:46;10.07;;;8.70;;
33858;SDS011;20156;47.486;12.074;2023-04-06T01:19:11;11.97;;;9.20;;
33858;SDS011;20156;47.486;12.074;2023-04-06T01:21:38;11.40;;;8.87;;
33858;SDS011;20156;47.486;12.074;2023-04-06T01:24:04;9.50;;;8.13;;
33858;SDS011;20156;47.486;12.074;2023-04-06T01:26:30;10.73;;;9.30;;
33858;SDS011;20156;47.486;12.074;2023-04-06T01:28:56;11.27;;;8.83;;
33858;SDS011;20156;47.486;12.074;2023-04-06T01:31:21;11.90;;;9.30;;
33858;SDS011;20156;47.486;12.074;2023-04-06T01:33:47;8.27;;;7.47;;
33858;SDS011;20156;47.486;12.074;2023-04-06T01:36:12;10.20;;;8.67;;
33858;SDS011;20156;47.486;12.074;2023-04-06T01:38:38;10.30;;;9.27;;
33858;SDS011;20156;47.486;12.074;2023-04-06T01:41:04;12.27;;;9.10;;
33858;SDS011;20156;47.486;12.074;2023-04-06T01:43:29;10.23;;;8.07;;
33858;SDS011;20156;47.486;12.074;2023-04-06T01:45:55;10.00;;;8.50;;
33858;SDS011;20156;47.486;12.074;2023-04-06T01:48:20;11.17;;;9.00;;
33858;SDS011;20156;47.486;12.074;2023-04-06T01:50:46;10.57;;;9.40;;
33858;SDS011;20156;47.486;12.074;2023-04-06T01:53:11;11.27;;;9.70;;
33858;SDS011;20156;47.486;12.074;2023-04-06T01:55:37;11.67;;;9.10;;
33858;SDS011;20156;47.486;12.074;2023-04-06T01:58:02;12.07;;;9.10;;
33858;SDS011;20156;47.486;12.074;2023-04-06T02:00:28;11.93;;;9.43;;
33858;SDS011;20156;47.486;12.074;2023-04-06T02:02:53;13.90;;;8.70;;
33858;SDS011;20156;47.486;12.074;2023-04-06T02:05:19;10.27;;;8.37;;
33858;SDS011;20156;47.486;12.074;2023-04-06T02:07:45;10.73;;;8.87;;
33858;SDS011;20156;47.486;12.074;2023-04-06T02:10:11;9.90;;;8.27;;
33858;SDS011;20156;47.486;12.074;2023-04-06T02:12:38;14.00;;;8.83;;
33858;SDS011;20156;47.486;12.074;2023-04-06T02:15:03;10.50;;;8.67;;
33858;SDS011;20156;47.486;12.074;2023-04-06T02:17:29;9.33;;;7.70;;
33858;SDS011;20156;47.486;12.074;2023-04-06T02:19:55;11.17;;;8.90;;
33858;SDS011;20156;47.486;12.074;2023-04-06T02:22:20;10.03;;;9.03;;
33858;SDS011;20156;47.486;12.074;2023-04-06T02:24:45;10.00;;;8.67;;
33858;SDS011;20156;47.486;12.074;2023-04-06T02:27:11;12.20;;;9.33;;
33858;SDS011;20156;47.486;12.074;2023-04-06T02:29:37;10.50;;;9.00;;
33858;SDS011;20156;47.486;12.074;2023-04-06T02:32:02;10.87;;;8.73;;
33858;SDS011;20156;47.486;12.074;2023-04-06T02:34:28;10.33;;;9.03;;
33858;SDS011;20156;47.486;12.074;2023-04-06T02:36:54;10.90;;;8.93;;
33858;SDS011;20156;47.486;12.074;2023-04-06T02:39:20;10.77;;;9.40;;
33858;SDS011;20156;47.486;12.074;2023-04-06T02:41:45;11.07;;;9.07;;
33858;SDS011;20156;47.486;12.074;2023-04-06T02:44:11;13.17;;;9.37;;
33858;SDS011;20156;47.486;12.074;2023-04-06T02:46:36;9.40;;;8.50;;
33858;SDS011;20156;47.486;12.074;2023-04-06T02:49:02;10.90;;;9.07;;
33858;SDS011;20156;47.486;12.074;2023-04-06T02:51:27;10.87;;;9.00;;
33858;SDS011;20156;47.486;12.074;2023-04-06T02:53:53;10.27;;;9.10;;
33858;SDS011;20156;47.486;12.074;2023-04-06T02:56:18;11.43;;;9.23;;
33858;SDS011;20156;47.486;12.074;2023-04-06T02:58:45;9.73;;;8.57;;
33858;SDS011;20156;47.486;12.074;2023-04-06T03:01:11;16.13;;;9.97;;
33858;SDS011;20156;47.486;12.074;2023-04-06T03:03:36;11.63;;;9.90;;
33858;SDS011;20156;47.486;12.074;2023-04-06T03:06:02;10.70;;;8.50;;
33858;SDS011;20156;47.486;12.074;2023-04-06T03:08:28;11.97;;;9.00;;
33858;SDS011;20156;47.486;12.074;2023-04-06T03:10:53;13.17;;;10.33;;
33858;SDS011;20156;47.486;12.074;2023-04-06T03:13:18;12.10;;;10.33;;
33858;SDS011;20156;47.486;12.074;2023-04-06T03:15:44;11.57;;;9.47;;
33858;SDS011;20156;47.486;12.074;2023-04-06T03:18:09;10.63;;;9.10;;
33858;SDS011;20156;47.486;12.074;2023-04-06T03:20:35;10.53;;;8.80;;
33858;SDS011;20156;47.486;12.074;2023-04-06T03:23:00;14.00;;;9.47;;
33858;SDS011;20156;47.486;12.074;2023-04-06T03:25:26;11.90;;;9.73;;
33858;SDS011;20156;47.486;12.074;2023-04-06T03:27:51;12.60;;;9.83;;
33858;SDS011;20156;47.486;12.074;2023-04-06T03:30:17;12.17;;;10.30;;
33858;SDS011;20156;47.486;12.074;2023-04-06T03:32:45;11.10;;;9.90;;
33858;SDS011;20156;47.486;12.074;2023-04-06T03:35:11;11.00;;;9.37;;
33858;SDS011;20156;47.486;12.074;2023-04-06T03:37:36;12.77;;;9.83;;
33858;SDS011;20156;47.486;12.074;2023-04-06T03:40:02;12.73;;;10.77;;
33858;SDS011;20156;47.486;12.074;2023-04-06T03:42:28;11.83;;;10.23;;
33858;SDS011;20156;47.486;12.074;2023-04-06T03:44:53;11.73;;;9.57;;
33858;SDS011;20156;47.486;12.074;2023-04-06T03:47:19;11.33;;;9.80;;
33858;SDS011;20156;47.486;12.074;2023-04-06T03:49:44;10.97;;;9.70;;
33858;SDS011;20156;47.486;12.074;2023-04-06T03:52:10;14.50;;;10.33;;
33858;SDS011;20156;47.486;12.074;2023-04-06T03:54:36;10.10;;;8.93;;
33858;SDS011;20156;47.486;12.074;2023-04-06T03:57:01;14.43;;;10.60;;
33858;SDS011;20156;47.486;12.074;2023-04-06T03:59:27;12.70;;;10.30;;
33858;SDS011;20156;47.486;12.074;2023-04-06T04:01:52;13.17;;;10.20;;
33858;SDS011;20156;47.486;12.074;2023-04-06T04:04:18;16.97;;;12.10;;
33858;SDS011;20156;47.486;12.074;2023-04-06T04:06:43;11.77;;;10.23;;
33858;SDS011;20156;47.486;12.074;2023-04-06T04:09:08;13.20;;;10.90;;
33858;SDS011;20156;47.486;12.074;2023-04-06T04:11:34;14.63;;;11.93;;
33858;SDS011;20156;47.486;12.074;2023-04-06T04:13:59;14.80;;;11.30;;
33858;SDS011;20156;47.486;12.074;2023-04-06T04:16:25;13.70;;;10.13;;
33858;SDS011;20156;47.486;12.074;2023-04-06T04:18:50;11.93;;;10.63;;
33858;SDS011;20156;47.486;12.074;2023-04-06T04:21:16;14.00;;;11.00;;
33858;SDS011;20156;47.486;12.074;2023-04-06T04:23:41;13.90;;;10.17;;
33858;SDS011;20156;47.486;12.074;2023-04-06T04:26:06;13.20;;;11.23;;
33858;SDS011;20156;47.486;12.074;2023-04-06T04:28:32;14.03;;;10.80;;
33858;SDS011;20156;47.486;12.074;2023-04-06T04:30:57;12.90;;;9.03;;
33858;SDS011;20156;47.486;12.074;2023-04-06T04:33:23;13.43;;;10.33;;
33858;SDS011;20156;47.486;12.074;2023-04-06T04:35:48;13.60;;;10.93;;
33858;SDS011;20156;47.486;12.074;2023-04-06T04:38:13;12.63;;;10.63;;
33858;SDS011;20156;47.486;12.074;2023-04-06T04:40:39;13.00;;;10.93;;
33858;SDS011;20156;47.486;12.074;2023-04-06T04:43:05;13.47;;;10.80;;
33858;SDS011;20156;47.486;12.074;2023-04-06T04:45:30;15.13;;;11.60;;
33858;SDS011;20156;47.486;12.074;2023-04-06T04:47:55;14.33;;;11.40;;
33858;SDS011;20156;47.486;12.074;2023-04-06T04:50:21;11.33;;;10.20;;
33858;SDS011;20156;47.486;12.074;2023-04-06T04:52:46;13.23;;;10.07;;
33858;SDS011;20156;47.486;12.074;2023-04-06T04:55:12;15.20;;;11.33;;
33858;SDS011;20156;47.486;12.074;2023-04-06T04:57:38;12.97;;;10.07;;
33858;SDS011;20156;47.486;12.074;2023-04-06T05:00:03;13.00;;;11.10;;
33858;SDS011;20156;47.486;12.074;2023-04-06T05:02:29;11.77;;;10.20;;
33858;SDS011;20156;47.486;12.074;2023-04-06T05:04:55;13.63;;;11.00;;
33858;SDS011;20156;47.486;12.074;2023-04-06T05:07:20;12.50;;;9.87;;
33858;SDS011;20156;47.486;12.074;2023-04-06T05:09:46;13.07;;;11.03;;
33858;SDS011;20156;47.486;12.074;2023-04-06T05:12:11;13.63;;;10.87;;
33858;SDS011;20156;47.486;12.074;2023-04-06T05:14:37;14.50;;;11.03;;
33858;SDS011;20156;47.486;12.074;2023-04-06T05:17:02;12.63;;;10.63;;
33858;SDS011;20156;47.486;12.074;2023-04-06T05:19:29;11.80;;;10.60;;
33858;SDS011;20156;47.486;12.074;2023-04-06T05:21:54;17.73;;;13.33;;
33858;SDS011;20156;47.486;12.074;2023-04-06T05:24:20;15.57;;;12.30;;
33858;SDS011;20156;47.486;12.074;2023-04-06T05:26:45;12.17;;;10.13;;
33858;SDS011;20156;47.486;12.074;2023-04-06T05:29:11;14.90;;;11.30;;
33858;SDS011;20156;47.486;12.074;2023-04-06T05:31:37;11.83;;;9.83;;
33858;SDS011;20156;47.486;12.074;2023-04-06T05:34:02;11.87;;;10.50;;
33858;SDS011;20156;47.486;12.074;2023-04-06T05:36:28;11.73;;;10.57;;
33858;SDS011;20156;47.486;12.074;2023-04-06T05:38:53;12.27;;;10.40;;
33858;SDS011;20156;47.486;12.074;2023-04-06T05:41:20;11.80;;;10.13;;
33858;SDS011;20156;47.486;12.074;2023-04-06T05:43:45;13.43;;;10.20;;
33858;SDS011;20156;47.486;12.074;2023-04-06T05:46:11;13.93;;;11.97;;
33858;SDS011;20156;47.486;12.074;2023-04-06T05:48:36;20.23;;;12.67;;
33858;SDS011;20156;47.486;12.074;2023-04-06T05:51:01;13.63;;;12.20;;
33858;SDS011;20156;47.486;12.074;2023-04-06T05:53:31;12.30;;;10.87;;
33858;SDS011;20156;47.486;12.074;2023-04-06T05:55:56;12.80;;;11.43;;
33858;SDS011;20156;47.486;12.074;2023-04-06T05:58:22;14.00;;;11.67;;
33858;SDS011;20156;47.486;12.074;2023-04-06T06:00:47;12.83;;;11.10;;
33858;SDS011;20156;47.486;12.074;2023-04-06T06:03:13;14.53;;;12.63;;
33858;SDS011;20156;47.486;12.074;2023-04-06T06:05:38;28.27;;;12.73;;
33858;SDS011;20156;47.486;12.074;2023-04-06T06:08:04;23.00;;;15.10;;
33858;SDS011;20156;47.486;12.074;2023-04-06T06:10:29;18.17;;;16.00;;
33858;SDS011;20156;47.486;12.074;2023-04-06T06:12:55;19.17;;;15.10;;
33858;SDS011;20156;47.486;12.074;2023-04-06T06:15:20;18.37;;;13.77;;
33858;SDS011;20156;47.486;12.074;2023-04-06T06:17:46;15.67;;;12.53;;
33858;SDS011;20156;47.486;12.074;2023-04-06T06:20:11;16.50;;;12.73;;
33858;SDS011;20156;47.486;12.074;2023-04-06T06:22:37;13.67;;;11.00;;
33858;SDS011;20156;47.486;12.074;2023-04-06T06:25:02;13.33;;;11.70;;
33858;SDS011;20156;47.486;12.074;2023-04-06T06:27:28;12.10;;;10.83;;
33858;SDS011;20156;47.486;12.074;2023-04-06T06:29:53;12.40;;;11.10;;
33858;SDS011;20156;47.486;12.074;2023-04-06T06:32:19;16.93;;;11.50;;
33858;SDS011;20156;47.486;12.074;2023-04-06T06:34:45;14.57;;;11.93;;
33858;SDS011;20156;47.486;12.074;2023-04-06T06:37:10;14.40;;;12.97;;
33858;SDS011;20156;47.486;12.074;2023-04-06T06:39:36;16.17;;;12.57;;
33858;SDS011;20156;47.486;12.074;2023-04-06T06:42:01;13.53;;;12.13;;
33858;SDS011;20156;47.486;12.074;2023-04-06T06:44:27;14.43;;;11.10;;
33858;SDS011;20156;47.486;12.074;2023-04-06T06:46:52;15.10;;;12.27;;
33858;SDS011;20156;47.486;12.074;2023-04-06T06:49:18;15.20;;;12.20;;
33858;SDS011;20156;47.486;12.074;2023-04-06T06:51:44;14.23;;;12.70;;
33858;SDS011;20156;47.486;12.074;2023-04-06T06:54:11;17.00;;;12.60;;
33858;SDS011;20156;47.486;12.074;2023-04-06T06:56:37;13.10;;;11.80;;
33858;SDS011;20156;47.486;12.074;2023-04-06T06:59:04;14.17;;;11.90;;
33858;SDS011;20156;47.486;12.074;2023-04-06T07:01:31;13.97;;;12.00;;
33858;SDS011;20156;47.486;12.074;2023-04-06T07:03:58;15.80;;;12.67;;
33858;SDS011;20156;47.486;12.074;2023-04-06T07:06:23;15.27;;;11.30;;
33858;SDS011;20156;47.486;12.074;2023-04-06T07:08:49;14.60;;;11.63;;
33858;SDS011;20156;47.486;12.074;2023-04-06T07:11:14;14.23;;;12.33;;
33858;SDS011;20156;47.486;12.074;2023-04-06T07:13:40;15.23;;;12.83;;
33858;SDS011;20156;47.486;12.074;2023-04-06T07:16:07;15.27;;;13.77;;
33858;SDS011;20156;47.486;12.074;2023-04-06T07:18:32;15.63;;;13.50;;
33858;SDS011;20156;47.486;12.074;2023-04-06T07:20:57;15.63;;;13.37;;
33858;SDS011;20156;47.486;12.074;2023-04-06T07:23:23;13.67;;;12.13;;
33858;SDS011;20156;47.486;12.074;2023-04-06T07:25:48;17.83;;;13.17;;
33858;SDS011;20156;47.486;12.074;2023-04-06T07:28:16;15.67;;;12.80;;
33858;SDS011;20156;47.486;12.074;2023-04-06T07:30:41;13.13;;;11.73;;
33858;SDS011;20156;47.486;12.074;2023-04-06T07:33:07;12.83;;;11.50;;
33858;SDS011;20156;47.486;12.074;2023-04-06T07:35:32;16.53;;;12.10;;
33858;SDS011;20156;47.486;12.074;2023-04-06T07:37:59;12.83;;;11.50;;
33858;SDS011;20156;47.486;12.074;2023-04-06T07:40:24;14.27;;;11.20;;
33858;SDS011;20156;47.486;12.074;2023-04-06T07:42:51;13.07;;;10.47;;
33858;SDS011;20156;47.486;12.074;2023-04-06T07:45:16;12.50;;;9.93;;
33858;SDS011;20156;47.486;12.074;2023-04-06T07:47:42;9.33;;;8.40;;
33858;SDS011;20156;47.486;12.074;2023-04-06T07:50:07;11.67;;;9.07;;
33858;SDS011;20156;47.486;12.074;2023-04-06T07:52:33;11.37;;;10.30;;
33858;SDS011;20156;47.486;12.074;2023-04-06T07:54:58;11.27;;;9.83;;
33858;SDS011;20156;47.486;12.074;2023-04-06T07:57:24;11.33;;;10.13;;
33858;SDS011;20156;47.486;12.074;2023-04-06T07:59:50;11.73;;;9.37;;
33858;SDS011;20156;47.486;12.074;2023-04-06T08:02:15;11.03;;;9.00;;
33858;SDS011;20156;47.486;12.074;2023-04-06T08:04:40;13.57;;;9.37;;
33858;SDS011;20156;47.486;12.074;2023-04-06T08:07:06;9.90;;;8.90;;
33858;SDS011;20156;47.486;12.074;2023-04-06T08:09:31;9.37;;;8.37;;
33858;SDS011;20156;47.486;12.074;2023-04-06T08:11:57;10.50;;;9.40;;
33858;SDS011;20156;47.486;12.074;2023-04-06T08:14:23;9.53;;;8.27;;
33858;SDS011;20156;47.486;12.074;2023-04-06T08:16:48;8.80;;;7.73;;
33858;SDS011;20156;47.486;12.074;2023-04-06T08:19:14;8.43;;;7.37;;
33858;SDS011;20156;47.486;12.074;2023-04-06T08:21:42;9.33;;;8.33;;
33858;SDS011;20156;47.486;12.074;2023-04-06T08:24:07;10.03;;;9.07;;
33858;SDS011;20156;47.486;12.074;2023-04-06T08:26:33;9.73;;;8.43;;
33858;SDS011;20156;47.486;12.074;2023-04-06T08:28:58;9.70;;;8.70;;
33858;SDS011;20156;47.486;12.074;2023-04-06T08:31:24;10.63;;;9.53;;
33858;SDS011;20156;47.486;12.074;2023-04-06T08:33:49;10.83;;;9.60;;
33858;SDS011;20156;47.486;12.074;2023-04-06T08:36:15;12.23;;;9.93;;
33858;SDS011;20156;47.486;12.074;2023-04-06T08:38:41;13.07;;;10.23;;
33858;SDS011;20156;47.486;12.074;2023-04-06T08:41:11;12.52;;;10.80;;
33858;SDS011;20156;47.486;12.074;2023-04-06T08:43:42;11.05;;;9.82;;
33858;SDS011;20156;47.486;12.074;2023-04-06T08:46:09;12.32;;;11.02;;
33858;SDS011;20156;47.486;12.074;2023-04-06T08:48:36;13.13;;;10.37;;
33858;SDS011;20156;47.486;12.074;2023-04-06T08:51:03;11.85;;;10.70;;
33858;SDS011;20156;47.486;12.074;2023-04-06T08:53:29;11.70;;;9.98;;
33858;SDS011;20156;47.486;12.074;2023-04-06T08:55:55;11.95;;;10.77;;
33858;SDS011;20156;47.486;12.074;2023-04-06T08:58:22;11.50;;;9.13;;
33858;SDS011;20156;47.486;12.074;2023-04-06T09:00:49;11.35;;;10.00;;
33858;SDS011;20156;47.486;12.074;2023-04-06T09:03:15;14.65;;;10.90;;
33858;SDS011;20156;47.486;12.074;2023-04-06T09:05:42;18.77;;;12.88;;
33858;SDS011;20156;47.486;12.074;2023-04-06T09:08:08;12.93;;;11.52;;
33858;SDS011;20156;47.486;12.074;2023-04-06T09:10:34;11.07;;;9.75;;
33858;SDS011;20156;47.486;12.074;2023-04-06T09:13:03;13.35;;;11.27;;
33858;SDS011;20156;47.486;12.074;2023-04-06T09:15:29;14.40;;;11.25;;
33858;SDS011;20156;47.486;12.074;2023-04-06T09:17:55;13.32;;;11.18;;
33858;SDS011;20156;47.486;12.074;2023-04-06T09:20:24;12.25;;;11.05;;
33858;SDS011;20156;47.486;12.074;2023-04-06T09:22:53;12.18;;;10.45;;
33858;SDS011;20156;47.486;12.074;2023-04-06T09:25:20;12.45;;;10.48;;
33858;SDS011;20156;47.486;12.074;2023-04-06T09:28:02;12.25;;;8.52;;
33858;SDS011;20156;47.486;12.074;2023-04-06T09:30:29;12.13;;;9.07;;
33858;SDS011;20156;47.486;12.074;2023-04-06T09:32:56;11.80;;;9.27;;
33858;SDS011;20156;47.486;12.074;2023-04-06T09:35:23;8.93;;;8.02;;
33858;SDS011;20156;47.486;12.074;2023-04-06T09:37:49;13.27;;;9.35;;
33858;SDS011;20156;47.486;12.074;2023-04-06T09:40:16;13.65;;;8.40;;
33858;SDS011;20156;47.486;12.074;2023-04-06T09:42:47;11.50;;;7.82;;
33858;SDS011;20156;47.486;12.074;2023-04-06T09:45:17;8.93;;;8.10;;
33858;SDS011;20156;47.486;12.074;2023-04-06T09:47:43;8.48;;;7.50;;
33858;SDS011;20156;47.486;12.074;2023-04-06T09:50:11;9.73;;;8.38;;
33858;SDS011;20156;47.486;12.074;2023-04-06T09:52:40;8.68;;;7.78;;
33858;SDS011;20156;47.486;12.074;2023-04-06T09:55:11;9.57;;;8.55;;
33858;SDS011;20156;47.486;12.074;2023-04-06T09:57:45;8.93;;;7.95;;
33858;SDS011;20156;47.486;12.074;2023-04-06T10:00:21;9.98;;;9.07;;
33858;SDS011;20156;47.486;12.074;2023-04-06T10:05:50;10.73;;;8.65;;
33858;SDS011;20156;47.486;12.074;2023-04-06T10:08:20;10.38;;;8.52;;
33858;SDS011;20156;47.486;12.074;2023-04-06T10:10:47;10.10;;;9.18;;
33858;SDS011;20156;47.486;12.074;2023-04-06T10:13:13;9.02;;;8.23;;
33858;SDS011;20156;47.486;12.074;2023-04-06T10:15:40;9.27;;;8.27;;
33858;SDS011;20156;47.486;12.074;2023-04-06T10:18:07;8.77;;;7.88;;
33858;SDS011;20156;47.486;12.074;2023-04-06T10:20:39;11.32;;;9.07;;
33858;SDS011;20156;47.486;12.074;2023-04-06T10:23:10;11.00;;;9.13;;
33858;SDS011;20156;47.486;12.074;2023-04-06T10:25:51;10.02;;;9.00;;
33858;SDS011;20156;47.486;12.074;2023-04-06T10:28:18;9.93;;;8.68;;
33858;SDS011;20156;47.486;12.074;2023-04-06T10:30:44;9.77;;;8.70;;
33858;SDS011;20156;47.486;12.074;2023-04-06T10:33:17;8.93;;;8.00;;
33858;SDS011;20156;47.486;12.074;2023-04-06T10:35:44;8.82;;;7.97;;
33858;SDS011;20156;47.486;12.074;2023-04-06T10:38:10;9.25;;;8.20;;
33858;SDS011;20156;47.486;12.074;2023-04-06T10:40:39;9.43;;;8.18;;
33858;SDS011;20156;47.486;12.074;2023-04-06T10:43:10;9.00;;;8.05;;
33858;SDS011;20156;47.486;12.074;2023-04-06T10:45:42;9.23;;;8.32;;
33858;SDS011;20156;47.486;12.074;2023-04-06T10:48:52;7.43;;;6.72;;
33858;SDS011;20156;47.486;12.074;2023-04-06T10:51:09;7.63;;;6.88;;
33858;SDS011;20156;47.486;12.074;2023-04-06T10:53:36;7.20;;;6.50;;
33858;SDS011;20156;47.486;12.074;2023-04-06T10:56:02;7.28;;;6.60;;
33858;SDS011;20156;47.486;12.074;2023-04-06T10:58:27;7.60;;;6.47;;
33858;SDS011;20156;47.486;12.074;2023-04-06T11:00:53;7.07;;;6.10;;
33858;SDS011;20156;47.486;12.074;2023-04-06T11:03:20;6.88;;;6.28;;
33858;SDS011;20156;47.486;12.074;2023-04-06T11:05:46;7.80;;;7.10;;
33858;SDS011;20156;47.486;12.074;2023-04-06T11:08:25;9.30;;;7.20;;
33858;SDS011;20156;47.486;12.074;2023-04-06T11:11:03;8.32;;;6.93;;
33858;SDS011;20156;47.486;12.074;2023-04-06T11:13:40;7.95;;;7.10;;
33858;SDS011;20156;47.486;12.074;2023-04-06T11:16:07;8.05;;;7.00;;
33858;SDS011;20156;47.486;12.074;2023-04-06T11:21:31;7.43;;;6.72;;
33858;SDS011;20156;47.486;12.074;2023-04-06T11:26:29;7.00;;;6.30;;
33858;SDS011;20156;47.486;12.074;2023-04-06T11:28:55;6.85;;;6.25;;
33858;SDS011;20156;47.486;12.074;2023-04-06T11:31:20;7.55;;;6.85;;
33858;SDS011;20156;47.486;12.074;2023-04-06T11:33:55;7.70;;;6.90;;
33858;SDS011;20156;47.486;12.074;2023-04-06T11:36:21;8.70;;;6.68;;
33858;SDS011;20156;47.486;12.074;2023-04-06T11:38:46;7.55;;;6.53;;
33858;SDS011;20156;47.486;12.074;2023-04-06T11:41:12;8.90;;;6.57;;
33858;SDS011;20156;47.486;12.074;2023-04-06T11:43:37;9.13;;;7.20;;
33858;SDS011;20156;47.486;12.074;2023-04-06T11:46:03;6.75;;;6.15;;
33858;SDS011;20156;47.486;12.074;2023-04-06T11:48:30;7.93;;;6.10;;
33858;SDS011;20156;47.486;12.074;2023-04-06T11:50:58;8.27;;;6.75;;
33858;SDS011;20156;47.486;12.074;2023-04-06T11:53:29;7.93;;;7.20;;
33858;SDS011;20156;47.486;12.074;2023-04-06T11:55:55;7.95;;;7.15;;
33858;SDS011;20156;47.486;12.074;2023-04-06T11:58:21;7.72;;;6.97;;
33858;SDS011;20156;47.486;12.074;2023-04-06T12:00:47;7.88;;;6.57;;
33858;SDS011;20156;47.486;12.074;2023-04-06T12:03:12;6.88;;;6.28;;
33858;SDS011;20156;47.486;12.074;2023-04-06T12:05:38;7.32;;;6.63;;
33858;SDS011;20156;47.486;12.074;2023-04-06T12:08:04;6.63;;;6.03;;
33858;SDS011;20156;47.486;12.074;2023-04-06T12:10:29;7.30;;;5.97;;
33858;SDS011;20156;47.486;12.074;2023-04-06T12:12:55;7.03;;;6.43;;
33858;SDS011;20156;47.486;12.074;2023-04-06T12:15:20;7.40;;;6.25;;
33858;SDS011;20156;47.486;12.074;2023-04-06T12:17:46;7.22;;;6.50;;
33858;SDS011;20156;47.486;12.074;2023-04-06T12:20:12;6.95;;;6.25;;
33858;SDS011;20156;47.486;12.074;2023-04-06T12:22:38;7.75;;;7.00;;
33858;SDS011;20156;47.486;12.074;2023-04-06T12:25:04;6.45;;;5.90;;
33858;SDS011;20156;47.486;12.074;2023-04-06T12:27:31;6.70;;;6.10;;
33858;SDS011;20156;47.486;12.074;2023-04-06T12:29:57;7.07;;;6.20;;
33858;SDS011;20156;47.486;12.074;2023-04-06T12:32:22;7.28;;;6.57;;
33858;SDS011;20156;47.486;12.074;2023-04-06T12:34:48;8.07;;;7.03;;
33858;SDS011;20156;47.486;12.074;2023-04-06T12:37:13;7.30;;;6.13;;
33858;SDS011;20156;47.486;12.074;2023-04-06T12:39:38;6.38;;;5.82;;
33858;SDS011;20156;47.486;12.074;2023-04-06T12:42:04;6.35;;;5.75;;
33858;SDS011;20156;47.486;12.074;2023-04-06T12:44:30;10.68;;;6.43;;
33858;SDS011;20156;47.486;12.074;2023-04-06T12:46:55;7.10;;;6.47;;
33858;SDS011;20156;47.486;12.074;2023-04-06T12:49:21;6.97;;;6.25;;
33858;SDS011;20156;47.486;12.074;2023-04-06T12:51:47;7.15;;;6.45;;
33858;SDS011;20156;47.486;12.074;2023-04-06T12:54:12;7.65;;;6.85;;
33858;SDS011;20156;47.486;12.074;2023-04-06T12:56:38;8.50;;;6.93;;
33858;SDS011;20156;47.486;12.074;2023-04-06T12:59:03;7.57;;;6.78;;
33858;SDS011;20156;47.486;12.074;2023-04-06T13:01:30;8.93;;;7.68;;
33858;SDS011;20156;47.486;12.074;2023-04-06T13:03:56;7.72;;;6.88;;
33858;SDS011;20156;47.486;12.074;2023-04-06T13:06:22;6.97;;;6.28;;
33858;SDS011;20156;47.486;12.074;2023-04-06T13:08:48;6.60;;;6.00;;
33858;SDS011;20156;47.486;12.074;2023-04-06T13:11:15;7.25;;;6.55;;
33858;SDS011;20156;47.486;12.074;2023-04-06T13:13:40;9.05;;;8.23;;
33858;SDS011;20156;47.486;12.074;2023-04-06T13:16:09;6.93;;;6.32;;
33858;SDS011;20156;47.486;12.074;2023-04-06T13:18:35;9.35;;;8.35;;
33858;SDS011;20156;47.486;12.074;2023-04-06T13:21:03;6.60;;;6.00;;
33858;SDS011;20156;47.486;12.074;2023-04-06T13:23:29;6.95;;;6.28;;
33858;SDS011;20156;47.486;12.074;2023-04-06T13:26:01;6.97;;;6.28;;
33858;SDS011;20156;47.486;12.074;2023-04-06T13:28:29;6.43;;;5.82;;
33858;SDS011;20156;47.486;12.074;2023-04-06T13:30:55;7.25;;;5.93;;
33858;SDS011;20156;47.486;12.074;2023-04-06T13:33:23;6.65;;;6.00;;
33858;SDS011;20156;47.486;12.074;2023-04-06T13:35:48;7.28;;;6.22;;
33858;SDS011;20156;47.486;12.074;2023-04-06T13:38:14;7.50;;;6.85;;
33858;SDS011;20156;47.486;12.074;2023-04-06T13:40:41;6.60;;;6.00;;
33858;SDS011;20156;47.486;12.074;2023-04-06T13:43:07;7.40;;;6.43;;
33858;SDS011;20156;47.486;12.074;2023-04-06T13:45:32;6.60;;;5.80;;
33858;SDS011;20156;47.486;12.074;2023-04-06T13:47:57;6.78;;;6.03;;
33858;SDS011;20156;47.486;12.074;2023-04-06T13:50:25;7.70;;;5.82;;
33858;SDS011;20156;47.486;12.074;2023-04-06T13:52:51;6.57;;;5.88;;
33858;SDS011;20156;47.486;12.074;2023-04-06T13:55:17;6.60;;;6.00;;
33858;SDS011;20156;47.486;12.074;2023-04-06T13:57:42;6.63;;;5.95;;
33858;SDS011;20156;47.486;12.074;2023-04-06T14:00:07;6.85;;;6.15;;
33858;SDS011;20156;47.486;12.074;2023-04-06T14:02:34;7.03;;;6.43;;
33858;SDS011;20156;47.486;12.074;2023-04-06T14:05:00;6.63;;;6.03;;
33858;SDS011;20156;47.486;12.074;2023-04-06T14:07:25;6.80;;;6.20;;
33858;SDS011;20156;47.486;12.074;2023-04-06T14:09:51;10.13;;;6.25;;
33858;SDS011;20156;47.486;12.074;2023-04-06T14:12:16;6.65;;;5.95;;
33858;SDS011;20156;47.486;12.074;2023-04-06T14:14:41;6.93;;;6.25;;
33858;SDS011;20156;47.486;12.074;2023-04-06T14:17:07;5.68;;;5.13;;
33858;SDS011;20156;47.486;12.074;2023-04-06T14:19:33;7.40;;;6.70;;
33858;SDS011;20156;47.486;12.074;2023-04-06T14:21:59;7.78;;;6.72;;
33858;SDS011;20156;47.486;12.074;2023-04-06T14:24:25;7.00;;;6.30;;